Foscoe, North Carolina
Current Conditions -  °F | °C
As of 11:35 PM on Wednesday 26 Nov 2014 (Local Time) from KTNB Reporting Station
Broken Clouds Broken Clouds  
Wind Chill: 32°   Ceiling: 11000
Heat Index: 32°   Visibility: 10mi
Dew Point: 32°   Wind: 0mph
Humidity: 98%   Direction: NA
Pressure: 29.96"   Gusts: NA
Location:  36.1797°N, 81.8424°W
Report Text: KTNB 270435Z AUTO 00000KT 10SM SCT095 BKN110 00/00 A2996 RMK AO2 T00011002
Loading
Personal Weather Stations






























Interactive Weather Map New forecast layout! Learn more

10-Day Weather Forecast

Advertisements
Track Severe Weather on mobile